sensor_id;sensor_type;location;lat;lon;timestamp;P1;durP1;ratioP1;P2;durP2;ratioP2
20861;SDS011;10591;52.532;13.348;2024-03-06T00:01:08;19.77;;;14.67;;
20861;SDS011;10591;52.532;13.348;2024-03-06T00:03:40;21.83;;;15.03;;
20861;SDS011;10591;52.532;13.348;2024-03-06T00:06:12;22.47;;;15.37;;
20861;SDS011;10591;52.532;13.348;2024-03-06T00:08:43;19.37;;;14.50;;
20861;SDS011;10591;52.532;13.348;2024-03-06T00:11:14;20.85;;;14.70;;
20861;SDS011;10591;52.532;13.348;2024-03-06T00:13:46;23.00;;;15.23;;
20861;SDS011;10591;52.532;13.348;2024-03-06T00:16:17;21.48;;;14.78;;
20861;SDS011;10591;52.532;13.348;2024-03-06T00:18:48;19.80;;;14.23;;
20861;SDS011;10591;52.532;13.348;2024-03-06T00:21:18;20.83;;;14.90;;
20861;SDS011;10591;52.532;13.348;2024-03-06T00:23:49;21.97;;;15.23;;
20861;SDS011;10591;52.532;13.348;2024-03-06T00:26:20;21.30;;;15.00;;
20861;SDS011;10591;52.532;13.348;2024-03-06T00:28:51;19.05;;;14.50;;
20861;SDS011;10591;52.532;13.348;2024-03-06T00:31:21;22.07;;;15.63;;
20861;SDS011;10591;52.532;13.348;2024-03-06T00:33:52;22.43;;;15.60;;
20861;SDS011;10591;52.532;13.348;2024-03-06T00:36:23;21.10;;;15.60;;
20861;SDS011;10591;52.532;13.348;2024-03-06T00:38:54;22.62;;;15.45;;
20861;SDS011;10591;52.532;13.348;2024-03-06T00:41:25;21.10;;;15.90;;
20861;SDS011;10591;52.532;13.348;2024-03-06T00:43:56;22.30;;;15.65;;
20861;SDS011;10591;52.532;13.348;2024-03-06T00:46:27;20.35;;;14.98;;
20861;SDS011;10591;52.532;13.348;2024-03-06T00:48:58;18.40;;;14.23;;
20861;SDS011;10591;52.532;13.348;2024-03-06T00:51:29;21.53;;;15.47;;
20861;SDS011;10591;52.532;13.348;2024-03-06T00:54:02;21.77;;;15.25;;
20861;SDS011;10591;52.532;13.348;2024-03-06T00:56:38;22.80;;;15.58;;
20861;SDS011;10591;52.532;13.348;2024-03-06T00:59:09;22.58;;;16.02;;
20861;SDS011;10591;52.532;13.348;2024-03-06T01:01:42;21.20;;;15.80;;
20861;SDS011;10591;52.532;13.348;2024-03-06T01:04:13;23.65;;;15.65;;
20861;SDS011;10591;52.532;13.348;2024-03-06T01:06:45;21.97;;;16.30;;
20861;SDS011;10591;52.532;13.348;2024-03-06T01:09:15;22.70;;;15.33;;
20861;SDS011;10591;52.532;13.348;2024-03-06T01:11:47;23.40;;;15.83;;
20861;SDS011;10591;52.532;13.348;2024-03-06T01:14:17;22.05;;;14.83;;
20861;SDS011;10591;52.532;13.348;2024-03-06T01:16:48;21.80;;;15.53;;
20861;SDS011;10591;52.532;13.348;2024-03-06T01:19:19;19.77;;;15.23;;
20861;SDS011;10591;52.532;13.348;2024-03-06T01:21:49;22.00;;;16.00;;
20861;SDS011;10591;52.532;13.348;2024-03-06T01:24:20;22.40;;;15.50;;
20861;SDS011;10591;52.532;13.348;2024-03-06T01:26:51;23.10;;;16.10;;
20861;SDS011;10591;52.532;13.348;2024-03-06T01:29:22;22.70;;;15.38;;
20861;SDS011;10591;52.532;13.348;2024-03-06T01:31:52;21.77;;;15.50;;
20861;SDS011;10591;52.532;13.348;2024-03-06T01:34:23;25.20;;;16.87;;
20861;SDS011;10591;52.532;13.348;2024-03-06T01:36:55;23.53;;;16.20;;
20861;SDS011;10591;52.532;13.348;2024-03-06T01:39:28;20.60;;;15.43;;
20861;SDS011;10591;52.532;13.348;2024-03-06T01:41:59;21.87;;;15.87;;
20861;SDS011;10591;52.532;13.348;2024-03-06T01:44:30;21.90;;;15.97;;
20861;SDS011;10591;52.532;13.348;2024-03-06T01:47:00;22.20;;;15.87;;
20861;SDS011;10591;52.532;13.348;2024-03-06T01:49:33;19.27;;;14.87;;
20861;SDS011;10591;52.532;13.348;2024-03-06T01:52:05;21.53;;;15.83;;
20861;SDS011;10591;52.532;13.348;2024-03-06T01:54:38;22.83;;;16.37;;
20861;SDS011;10591;52.532;13.348;2024-03-06T01:57:09;23.50;;;17.45;;
20861;SDS011;10591;52.532;13.348;2024-03-06T01:59:42;22.20;;;16.42;;
20861;SDS011;10591;52.532;13.348;2024-03-06T02:02:14;23.10;;;16.37;;
20861;SDS011;10591;52.532;13.348;2024-03-06T02:04:45;22.77;;;15.85;;
20861;SDS011;10591;52.532;13.348;2024-03-06T02:07:16;23.00;;;15.33;;
20861;SDS011;10591;52.532;13.348;2024-03-06T02:09:48;21.37;;;16.10;;
20861;SDS011;10591;52.532;13.348;2024-03-06T02:12:19;23.67;;;15.90;;
20861;SDS011;10591;52.532;13.348;2024-03-06T02:14:51;21.15;;;15.48;;
20861;SDS011;10591;52.532;13.348;2024-03-06T02:17:22;22.40;;;15.70;;
20861;SDS011;10591;52.532;13.348;2024-03-06T02:19:55;23.17;;;16.40;;
20861;SDS011;10591;52.532;13.348;2024-03-06T02:22:27;21.20;;;16.50;;
20861;SDS011;10591;52.532;13.348;2024-03-06T02:24:58;22.23;;;16.60;;
20861;SDS011;10591;52.532;13.348;2024-03-06T02:27:28;21.73;;;16.20;;
20861;SDS011;10591;52.532;13.348;2024-03-06T02:30:00;23.80;;;16.60;;
20861;SDS011;10591;52.532;13.348;2024-03-06T02:32:33;24.03;;;17.03;;
20861;SDS011;10591;52.532;13.348;2024-03-06T02:35:03;23.40;;;16.93;;
20861;SDS011;10591;52.532;13.348;2024-03-06T02:37:37;23.30;;;16.67;;
20861;SDS011;10591;52.532;13.348;2024-03-06T02:40:08;23.27;;;16.17;;
20861;SDS011;10591;52.532;13.348;2024-03-06T02:42:39;21.50;;;16.57;;
20861;SDS011;10591;52.532;13.348;2024-03-06T02:45:10;25.47;;;17.53;;
20861;SDS011;10591;52.532;13.348;2024-03-06T02:47:44;24.83;;;17.03;;
20861;SDS011;10591;52.532;13.348;2024-03-06T02:50:15;23.83;;;17.43;;
20861;SDS011;10591;52.532;13.348;2024-03-06T02:52:45;24.63;;;17.10;;
20861;SDS011;10591;52.532;13.348;2024-03-06T02:55:17;21.60;;;16.33;;
20861;SDS011;10591;52.532;13.348;2024-03-06T02:57:48;25.60;;;16.45;;
20861;SDS011;10591;52.532;13.348;2024-03-06T03:00:18;23.27;;;17.02;;
20861;SDS011;10591;52.532;13.348;2024-03-06T03:02:50;23.37;;;16.47;;
20861;SDS011;10591;52.532;13.348;2024-03-06T03:05:21;24.57;;;16.93;;
20861;SDS011;10591;52.532;13.348;2024-03-06T03:07:52;24.27;;;17.23;;
20861;SDS011;10591;52.532;13.348;2024-03-06T03:10:23;24.87;;;17.13;;
20861;SDS011;10591;52.532;13.348;2024-03-06T03:12:54;25.47;;;17.23;;
20861;SDS011;10591;52.532;13.348;2024-03-06T03:15:24;23.33;;;17.37;;
20861;SDS011;10591;52.532;13.348;2024-03-06T03:17:55;23.47;;;17.13;;
20861;SDS011;10591;52.532;13.348;2024-03-06T03:20:30;24.57;;;18.27;;
20861;SDS011;10591;52.532;13.348;2024-03-06T03:23:01;24.47;;;17.10;;
20861;SDS011;10591;52.532;13.348;2024-03-06T03:25:32;25.15;;;17.55;;
20861;SDS011;10591;52.532;13.348;2024-03-06T03:28:06;25.10;;;17.20;;
20861;SDS011;10591;52.532;13.348;2024-03-06T03:30:37;25.30;;;17.80;;
20861;SDS011;10591;52.532;13.348;2024-03-06T03:33:07;27.27;;;18.50;;
20861;SDS011;10591;52.532;13.348;2024-03-06T03:35:39;26.83;;;17.30;;
20861;SDS011;10591;52.532;13.348;2024-03-06T03:38:10;31.62;;;21.45;;
20861;SDS011;10591;52.532;13.348;2024-03-06T03:40:40;23.80;;;16.83;;
20861;SDS011;10591;52.532;13.348;2024-03-06T03:43:11;24.50;;;18.10;;
20861;SDS011;10591;52.532;13.348;2024-03-06T03:45:42;24.10;;;17.53;;
20861;SDS011;10591;52.532;13.348;2024-03-06T03:48:13;27.73;;;17.98;;
20861;SDS011;10591;52.532;13.348;2024-03-06T03:50:43;24.73;;;17.73;;
20861;SDS011;10591;52.532;13.348;2024-03-06T03:53:14;29.33;;;17.07;;
20861;SDS011;10591;52.532;13.348;2024-03-06T03:55:46;25.53;;;17.37;;
20861;SDS011;10591;52.532;13.348;2024-03-06T03:58:18;24.13;;;17.97;;
20861;SDS011;10591;52.532;13.348;2024-03-06T04:00:50;23.83;;;17.93;;
20861;SDS011;10591;52.532;13.348;2024-03-06T04:03:22;26.87;;;18.40;;
20861;SDS011;10591;52.532;13.348;2024-03-06T04:05:53;24.00;;;17.10;;
20861;SDS011;10591;52.532;13.348;2024-03-06T04:08:24;26.47;;;17.67;;
20861;SDS011;10591;52.532;13.348;2024-03-06T04:10:55;25.03;;;17.67;;
20861;SDS011;10591;52.532;13.348;2024-03-06T04:13:26;25.00;;;17.47;;
20861;SDS011;10591;52.532;13.348;2024-03-06T04:15:56;27.10;;;19.50;;
20861;SDS011;10591;52.532;13.348;2024-03-06T04:18:27;27.30;;;17.83;;
20861;SDS011;10591;52.532;13.348;2024-03-06T04:21:05;27.40;;;17.57;;
20861;SDS011;10591;52.532;13.348;2024-03-06T04:23:36;29.20;;;18.53;;
20861;SDS011;10591;52.532;13.348;2024-03-06T04:26:07;25.80;;;18.10;;
20861;SDS011;10591;52.532;13.348;2024-03-06T04:28:38;24.87;;;17.93;;
20861;SDS011;10591;52.532;13.348;2024-03-06T04:31:09;28.13;;;19.10;;
20861;SDS011;10591;52.532;13.348;2024-03-06T04:33:40;30.13;;;19.37;;
20861;SDS011;10591;52.532;13.348;2024-03-06T04:36:11;27.70;;;19.53;;
20861;SDS011;10591;52.532;13.348;2024-03-06T04:38:42;26.43;;;18.57;;
20861;SDS011;10591;52.532;13.348;2024-03-06T04:41:14;28.73;;;19.03;;
20861;SDS011;10591;52.532;13.348;2024-03-06T04:43:47;29.73;;;19.47;;
20861;SDS011;10591;52.532;13.348;2024-03-06T04:46:19;25.33;;;17.57;;
20861;SDS011;10591;52.532;13.348;2024-03-06T04:48:50;28.17;;;18.00;;
20861;SDS011;10591;52.532;13.348;2024-03-06T04:51:21;27.20;;;18.00;;
20861;SDS011;10591;52.532;13.348;2024-03-06T04:53:52;26.10;;;17.83;;
20861;SDS011;10591;52.532;13.348;2024-03-06T04:56:22;27.85;;;18.55;;
20861;SDS011;10591;52.532;13.348;2024-03-06T04:58:55;26.07;;;17.80;;
20861;SDS011;10591;52.532;13.348;2024-03-06T05:01:28;27.05;;;18.77;;
20861;SDS011;10591;52.532;13.348;2024-03-06T05:04:01;27.82;;;18.37;;
20861;SDS011;10591;52.532;13.348;2024-03-06T05:06:50;27.85;;;18.82;;
20861;SDS011;10591;52.532;13.348;2024-03-06T05:09:38;27.33;;;18.70;;
20861;SDS011;10591;52.532;13.348;2024-03-06T05:12:30;26.90;;;18.33;;
20861;SDS011;10591;52.532;13.348;2024-03-06T05:15:19;24.87;;;18.40;;
20861;SDS011;10591;52.532;13.348;2024-03-06T05:18:07;29.03;;;19.17;;
20861;SDS011;10591;52.532;13.348;2024-03-06T05:20:55;28.67;;;18.85;;
20861;SDS011;10591;52.532;13.348;2024-03-06T05:23:44;29.92;;;19.02;;
20861;SDS011;10591;52.532;13.348;2024-03-06T05:26:34;29.83;;;19.83;;
20861;SDS011;10591;52.532;13.348;2024-03-06T05:29:22;30.97;;;20.27;;
20861;SDS011;10591;52.532;13.348;2024-03-06T05:32:10;29.03;;;19.40;;
20861;SDS011;10591;52.532;13.348;2024-03-06T05:34:58;29.97;;;20.07;;
20861;SDS011;10591;52.532;13.348;2024-03-06T05:37:46;29.60;;;20.07;;
20861;SDS011;10591;52.532;13.348;2024-03-06T05:40:35;29.83;;;20.03;;
20861;SDS011;10591;52.532;13.348;2024-03-06T05:43:25;30.53;;;20.27;;
20861;SDS011;10591;52.532;13.348;2024-03-06T05:46:16;29.30;;;20.30;;
20861;SDS011;10591;52.532;13.348;2024-03-06T05:49:06;29.80;;;20.00;;
20861;SDS011;10591;52.532;13.348;2024-03-06T05:51:54;31.20;;;19.70;;
20861;SDS011;10591;52.532;13.348;2024-03-06T05:54:43;28.40;;;19.13;;
20861;SDS011;10591;52.532;13.348;2024-03-06T05:57:31;27.70;;;19.30;;
20861;SDS011;10591;52.532;13.348;2024-03-06T06:00:19;28.67;;;18.93;;
20861;SDS011;10591;52.532;13.348;2024-03-06T06:02:51;34.87;;;19.73;;
20861;SDS011;10591;52.532;13.348;2024-03-06T06:05:23;30.70;;;20.67;;
20861;SDS011;10591;52.532;13.348;2024-03-06T06:07:55;29.63;;;19.63;;
20861;SDS011;10591;52.532;13.348;2024-03-06T06:10:26;30.40;;;19.70;;
20861;SDS011;10591;52.532;13.348;2024-03-06T06:12:56;30.77;;;19.97;;
20861;SDS011;10591;52.532;13.348;2024-03-06T06:15:27;29.20;;;18.67;;
20861;SDS011;10591;52.532;13.348;2024-03-06T06:17:58;32.27;;;18.77;;
20861;SDS011;10591;52.532;13.348;2024-03-06T06:20:29;28.60;;;19.30;;
20861;SDS011;10591;52.532;13.348;2024-03-06T06:23:00;28.40;;;19.43;;
20861;SDS011;10591;52.532;13.348;2024-03-06T06:25:31;31.20;;;20.57;;
20861;SDS011;10591;52.532;13.348;2024-03-06T06:28:03;29.57;;;20.30;;
20861;SDS011;10591;52.532;13.348;2024-03-06T06:30:34;33.90;;;19.90;;
20861;SDS011;10591;52.532;13.348;2024-03-06T06:33:04;30.88;;;20.85;;
20861;SDS011;10591;52.532;13.348;2024-03-06T06:35:35;31.27;;;20.80;;
20861;SDS011;10591;52.532;13.348;2024-03-06T06:38:06;29.90;;;19.00;;
20861;SDS011;10591;52.532;13.348;2024-03-06T06:40:38;32.77;;;20.47;;
20861;SDS011;10591;52.532;13.348;2024-03-06T06:43:12;33.70;;;21.23;;
20861;SDS011;10591;52.532;13.348;2024-03-06T06:45:44;31.73;;;21.07;;
20861;SDS011;10591;52.532;13.348;2024-03-06T06:48:14;32.37;;;20.70;;
20861;SDS011;10591;52.532;13.348;2024-03-06T06:50:46;34.13;;;20.70;;
20861;SDS011;10591;52.532;13.348;2024-03-06T06:53:17;31.17;;;19.57;;
20861;SDS011;10591;52.532;13.348;2024-03-06T06:55:48;34.90;;;21.30;;
20861;SDS011;10591;52.532;13.348;2024-03-06T06:58:19;29.83;;;19.57;;
20861;SDS011;10591;52.532;13.348;2024-03-06T07:00:50;29.47;;;19.87;;
20861;SDS011;10591;52.532;13.348;2024-03-06T07:03:22;29.40;;;19.53;;
20861;SDS011;10591;52.532;13.348;2024-03-06T07:05:55;29.70;;;20.13;;
20861;SDS011;10591;52.532;13.348;2024-03-06T07:08:28;34.23;;;21.00;;
20861;SDS011;10591;52.532;13.348;2024-03-06T07:11:00;32.43;;;22.00;;
20861;SDS011;10591;52.532;13.348;2024-03-06T07:13:32;28.60;;;19.30;;
20861;SDS011;10591;52.532;13.348;2024-03-06T07:16:03;28.37;;;18.33;;
20861;SDS011;10591;52.532;13.348;2024-03-06T07:18:33;26.43;;;19.13;;
20861;SDS011;10591;52.532;13.348;2024-03-06T07:21:07;29.97;;;19.33;;
20861;SDS011;10591;52.532;13.348;2024-03-06T07:23:37;35.20;;;23.30;;
20861;SDS011;10591;52.532;13.348;2024-03-06T07:26:08;28.37;;;19.37;;
20861;SDS011;10591;52.532;13.348;2024-03-06T07:28:39;25.77;;;19.05;;
20861;SDS011;10591;52.532;13.348;2024-03-06T07:31:10;27.47;;;18.87;;
20861;SDS011;10591;52.532;13.348;2024-03-06T07:33:40;26.03;;;18.73;;
20861;SDS011;10591;52.532;13.348;2024-03-06T07:36:11;27.20;;;18.97;;
20861;SDS011;10591;52.532;13.348;2024-03-06T07:38:42;25.53;;;18.37;;
20861;SDS011;10591;52.532;13.348;2024-03-06T07:41:13;27.30;;;19.35;;
20861;SDS011;10591;52.532;13.348;2024-03-06T07:43:44;24.70;;;17.17;;
20861;SDS011;10591;52.532;13.348;2024-03-06T07:46:16;24.72;;;17.00;;
20861;SDS011;10591;52.532;13.348;2024-03-06T07:48:47;23.73;;;16.60;;
20861;SDS011;10591;52.532;13.348;2024-03-06T07:51:18;23.77;;;16.80;;
20861;SDS011;10591;52.532;13.348;2024-03-06T07:53:50;22.70;;;15.90;;
20861;SDS011;10591;52.532;13.348;2024-03-06T07:56:21;21.60;;;15.57;;
20861;SDS011;10591;52.532;13.348;2024-03-06T07:58:52;21.97;;;15.27;;
20861;SDS011;10591;52.532;13.348;2024-03-06T08:01:24;21.93;;;15.25;;
20861;SDS011;10591;52.532;13.348;2024-03-06T08:03:56;21.23;;;15.32;;
20861;SDS011;10591;52.532;13.348;2024-03-06T08:06:27;16.17;;;12.55;;
20861;SDS011;10591;52.532;13.348;2024-03-06T08:09:00;19.92;;;14.30;;
20861;SDS011;10591;52.532;13.348;2024-03-06T08:11:31;17.97;;;13.13;;
20861;SDS011;10591;52.532;13.348;2024-03-06T08:14:04;18.12;;;13.58;;
20861;SDS011;10591;52.532;13.348;2024-03-06T08:16:36;18.53;;;14.20;;
20861;SDS011;10591;52.532;13.348;2024-03-06T08:19:06;16.35;;;13.03;;
20861;SDS011;10591;52.532;13.348;2024-03-06T08:21:38;21.00;;;13.60;;
20861;SDS011;10591;52.532;13.348;2024-03-06T08:24:09;20.03;;;13.67;;
20861;SDS011;10591;52.532;13.348;2024-03-06T08:26:40;18.05;;;13.60;;
20861;SDS011;10591;52.532;13.348;2024-03-06T08:29:11;17.67;;;12.53;;
20861;SDS011;10591;52.532;13.348;2024-03-06T08:31:43;16.85;;;12.63;;
20861;SDS011;10591;52.532;13.348;2024-03-06T08:34:14;16.77;;;12.63;;
20861;SDS011;10591;52.532;13.348;2024-03-06T08:36:46;17.75;;;13.68;;
20861;SDS011;10591;52.532;13.348;2024-03-06T08:39:17;16.90;;;12.88;;
20861;SDS011;10591;52.532;13.348;2024-03-06T08:41:48;16.50;;;12.80;;
20861;SDS011;10591;52.532;13.348;2024-03-06T08:44:18;17.45;;;13.58;;
20861;SDS011;10591;52.532;13.348;2024-03-06T08:46:49;17.37;;;13.30;;
20861;SDS011;10591;52.532;13.348;2024-03-06T08:49:20;19.23;;;13.25;;
20861;SDS011;10591;52.532;13.348;2024-03-06T08:51:50;16.67;;;13.20;;
20861;SDS011;10591;52.532;13.348;2024-03-06T08:54:23;21.05;;;15.85;;
20861;SDS011;10591;52.532;13.348;2024-03-06T08:56:53;17.02;;;13.28;;
20861;SDS011;10591;52.532;13.348;2024-03-06T08:59:25;19.60;;;13.85;;
20861;SDS011;10591;52.532;13.348;2024-03-06T09:01:57;15.68;;;12.00;;
20861;SDS011;10591;52.532;13.348;2024-03-06T09:04:29;16.77;;;12.25;;
20861;SDS011;10591;52.532;13.348;2024-03-06T09:07:00;16.05;;;12.10;;
20861;SDS011;10591;52.532;13.348;2024-03-06T09:09:31;15.85;;;12.05;;
20861;SDS011;10591;52.532;13.348;2024-03-06T09:12:03;14.78;;;11.48;;
20861;SDS011;10591;52.532;13.348;2024-03-06T09:14:35;14.73;;;11.08;;
20861;SDS011;10591;52.532;13.348;2024-03-06T09:17:10;16.17;;;11.22;;
20861;SDS011;10591;52.532;13.348;2024-03-06T09:19:43;12.00;;;9.88;;
20861;SDS011;10591;52.532;13.348;2024-03-06T09:22:15;12.78;;;10.13;;
20861;SDS011;10591;52.532;13.348;2024-03-06T09:24:46;13.43;;;10.10;;
20861;SDS011;10591;52.532;13.348;2024-03-06T09:27:17;13.45;;;10.65;;
20861;SDS011;10591;52.532;13.348;2024-03-06T09:29:48;14.33;;;11.08;;
20861;SDS011;10591;52.532;13.348;2024-03-06T09:32:19;14.87;;;10.80;;
20861;SDS011;10591;52.532;13.348;2024-03-06T09:34:52;12.18;;;10.48;;
20861;SDS011;10591;52.532;13.348;2024-03-06T09:37:22;11.65;;;10.32;;
20861;SDS011;10591;52.532;13.348;2024-03-06T09:39:53;11.55;;;9.13;;
20861;SDS011;10591;52.532;13.348;2024-03-06T09:42:25;10.98;;;8.68;;
20861;SDS011;10591;52.532;13.348;2024-03-06T09:44:58;12.63;;;9.53;;
20861;SDS011;10591;52.532;13.348;2024-03-06T09:47:31;12.55;;;9.03;;
20861;SDS011;10591;52.532;13.348;2024-03-06T09:50:06;11.03;;;9.48;;
20861;SDS011;10591;52.532;13.348;2024-03-06T09:52:39;11.33;;;9.10;;
20861;SDS011;10591;52.532;13.348;2024-03-06T09:55:12;11.95;;;9.40;;
20861;SDS011;10591;52.532;13.348;2024-03-06T09:57:46;11.55;;;9.80;;
20861;SDS011;10591;52.532;13.348;2024-03-06T10:00:17;11.40;;;9.65;;
20861;SDS011;10591;52.532;13.348;2024-03-06T10:02:52;13.97;;;10.97;;
20861;SDS011;10591;52.532;13.348;2024-03-06T10:05:30;14.00;;;11.50;;
20861;SDS011;10591;52.532;13.348;2024-03-06T10:08:03;14.73;;;10.40;;
20861;SDS011;10591;52.532;13.348;2024-03-06T10:10:35;13.58;;;10.90;;
20861;SDS011;10591;52.532;13.348;2024-03-06T10:13:07;12.68;;;10.10;;
20861;SDS011;10591;52.532;13.348;2024-03-06T10:15:39;12.77;;;10.17;;
20861;SDS011;10591;52.532;13.348;2024-03-06T10:18:13;14.45;;;11.10;;
20861;SDS011;10591;52.532;13.348;2024-03-06T10:20:48;14.18;;;10.45;;
20861;SDS011;10591;52.532;13.348;2024-03-06T10:23:18;11.75;;;9.93;;
20861;SDS011;10591;52.532;13.348;2024-03-06T10:25:50;11.60;;;9.73;;
20861;SDS011;10591;52.532;13.348;2024-03-06T10:28:25;14.05;;;9.70;;
20861;SDS011;10591;52.532;13.348;2024-03-06T10:31:02;13.90;;;11.08;;
20861;SDS011;10591;52.532;13.348;2024-03-06T10:33:37;14.38;;;10.55;;
20861;SDS011;10591;52.532;13.348;2024-03-06T10:36:10;12.73;;;10.37;;
20861;SDS011;10591;52.532;13.348;2024-03-06T10:38:42;11.00;;;9.35;;
20861;SDS011;10591;52.532;13.348;2024-03-06T10:41:18;13.00;;;10.45;;
20861;SDS011;10591;52.532;13.348;2024-03-06T10:43:53;13.50;;;9.78;;
20861;SDS011;10591;52.532;13.348;2024-03-06T10:46:25;12.73;;;9.13;;
20861;SDS011;10591;52.532;13.348;2024-03-06T10:48:59;12.58;;;9.78;;
20861;SDS011;10591;52.532;13.348;2024-03-06T10:51:33;11.12;;;9.28;;
20861;SDS011;10591;52.532;13.348;2024-03-06T10:54:07;11.70;;;9.08;;
20861;SDS011;10591;52.532;13.348;2024-03-06T10:56:40;13.40;;;9.68;;
20861;SDS011;10591;52.532;13.348;2024-03-06T10:59:12;10.50;;;9.08;;
20861;SDS011;10591;52.532;13.348;2024-03-06T11:01:46;12.20;;;9.87;;
20861;SDS011;10591;52.532;13.348;2024-03-06T11:04:17;12.10;;;9.75;;
20861;SDS011;10591;52.532;13.348;2024-03-06T11:06:49;10.78;;;9.18;;
20861;SDS011;10591;52.532;13.348;2024-03-06T11:09:20;11.40;;;9.53;;
20861;SDS011;10591;52.532;13.348;2024-03-06T11:11:51;12.65;;;9.75;;
20861;SDS011;10591;52.532;13.348;2024-03-06T11:14:23;10.28;;;8.08;;
20861;SDS011;10591;52.532;13.348;2024-03-06T11:16:56;9.00;;;8.10;;
20861;SDS011;10591;52.532;13.348;2024-03-06T11:20:08;11.97;;;8.70;;
20861;SDS011;10591;52.532;13.348;2024-03-06T11:22:06;9.70;;;8.65;;
20861;SDS011;10591;52.532;13.348;2024-03-06T11:24:40;11.50;;;9.53;;
20861;SDS011;10591;52.532;13.348;2024-03-06T11:27:11;12.75;;;11.35;;
20861;SDS011;10591;52.532;13.348;2024-03-06T11:32:36;22.00;;;19.60;;
20861;SDS011;10591;52.532;13.348;2024-03-06T11:35:11;15.88;;;13.08;;
20861;SDS011;10591;52.532;13.348;2024-03-06T11:37:45;15.98;;;13.93;;
20861;SDS011;10591;52.532;13.348;2024-03-06T11:40:16;13.98;;;11.73;;
20861;SDS011;10591;52.532;13.348;2024-03-06T11:42:51;14.63;;;11.93;;
20861;SDS011;10591;52.532;13.348;2024-03-06T11:45:22;15.83;;;14.15;;
20861;SDS011;10591;52.532;13.348;2024-03-06T11:48:00;17.12;;;14.70;;
20861;SDS011;10591;52.532;13.348;2024-03-06T11:50:32;18.32;;;15.32;;
20861;SDS011;10591;52.532;13.348;2024-03-06T11:53:06;18.30;;;15.65;;
20861;SDS011;10591;52.532;13.348;2024-03-06T11:55:41;20.32;;;18.27;;
20861;SDS011;10591;52.532;13.348;2024-03-06T11:58:16;19.52;;;17.50;;
20861;SDS011;10591;52.532;13.348;2024-03-06T12:00:48;17.23;;;14.25;;
20861;SDS011;10591;52.532;13.348;2024-03-06T12:03:21;17.05;;;15.08;;
20861;SDS011;10591;52.532;13.348;2024-03-06T12:05:54;15.90;;;14.00;;
20861;SDS011;10591;52.532;13.348;2024-03-06T12:08:26;20.20;;;18.02;;
20861;SDS011;10591;52.532;13.348;2024-03-06T12:11:00;17.60;;;15.80;;
20861;SDS011;10591;52.532;13.348;2024-03-06T12:13:31;17.82;;;15.93;;
20861;SDS011;10591;52.532;13.348;2024-03-06T12:16:07;16.17;;;13.83;;
20861;SDS011;10591;52.532;13.348;2024-03-06T12:18:38;16.50;;;12.73;;
20861;SDS011;10591;52.532;13.348;2024-03-06T12:21:12;14.73;;;12.47;;
20861;SDS011;10591;52.532;13.348;2024-03-06T12:23:43;14.53;;;11.83;;
20861;SDS011;10591;52.532;13.348;2024-03-06T12:26:13;12.50;;;10.82;;
20861;SDS011;10591;52.532;13.348;2024-03-06T12:28:44;13.93;;;11.78;;
20861;SDS011;10591;52.532;13.348;2024-03-06T12:31:16;14.85;;;11.03;;
20861;SDS011;10591;52.532;13.348;2024-03-06T12:33:56;11.73;;;10.53;;
20861;SDS011;10591;52.532;13.348;2024-03-06T12:36:24;12.25;;;10.25;;
20861;SDS011;10591;52.532;13.348;2024-03-06T12:39:02;11.95;;;10.72;;
20861;SDS011;10591;52.532;13.348;2024-03-06T12:41:35;13.68;;;10.70;;
20861;SDS011;10591;52.532;13.348;2024-03-06T12:44:08;14.07;;;11.20;;
20861;SDS011;10591;52.532;13.348;2024-03-06T12:46:39;14.28;;;10.48;;
20861;SDS011;10591;52.532;13.348;2024-03-06T12:49:12;10.80;;;9.70;;
20861;SDS011;10591;52.532;13.348;2024-03-06T12:51:44;12.10;;;10.90;;
20861;SDS011;10591;52.532;13.348;2024-03-06T12:54:15;14.18;;;11.48;;
20861;SDS011;10591;52.532;13.348;2024-03-06T12:56:46;12.75;;;11.18;;
20861;SDS011;10591;52.532;13.348;2024-03-06T12:59:17;12.55;;;11.30;;
20861;SDS011;10591;52.532;13.348;2024-03-06T13:01:49;14.07;;;11.73;;
20861;SDS011;10591;52.532;13.348;2024-03-06T13:04:22;13.93;;;12.47;;
20861;SDS011;10591;52.532;13.348;2024-03-06T13:06:53;14.18;;;12.68;;
20861;SDS011;10591;52.532;13.348;2024-03-06T13:09:23;16.40;;;11.43;;
20861;SDS011;10591;52.532;13.348;2024-03-06T13:11:55;13.45;;;11.78;;
20861;SDS011;10591;52.532;13.348;2024-03-06T13:14:30;15.00;;;12.33;;
20861;SDS011;10591;52.532;13.348;2024-03-06T13:17:02;15.88;;;12.28;;
20861;SDS011;10591;52.532;13.348;2024-03-06T13:19:35;16.37;;;12.82;;
20861;SDS011;10591;52.532;13.348;2024-03-06T13:22:06;16.37;;;13.08;;
20861;SDS011;10591;52.532;13.348;2024-03-06T13:24:39;17.73;;;13.38;;
20861;SDS011;10591;52.532;13.348;2024-03-06T13:27:11;18.95;;;14.87;;
20861;SDS011;10591;52.532;13.348;2024-03-06T13:29:45;23.02;;;16.20;;
20861;SDS011;10591;52.532;13.348;2024-03-06T13:32:20;24.00;;;15.55;;
20861;SDS011;10591;52.532;13.348;2024-03-06T13:34:54;25.90;;;15.50;;
20861;SDS011;10591;52.532;13.348;2024-03-06T13:37:26;24.18;;;15.53;;
20861;SDS011;10591;52.532;13.348;2024-03-06T13:39:57;20.37;;;14.20;;
20861;SDS011;10591;52.532;13.348;2024-03-06T13:42:32;24.75;;;14.98;;
20861;SDS011;10591;52.532;13.348;2024-03-06T13:45:07;23.30;;;15.65;;
20861;SDS011;10591;52.532;13.348;2024-03-06T13:47:44;20.90;;;13.98;;
20861;SDS011;10591;52.532;13.348;2024-03-06T13:50:15;20.68;;;14.00;;
20861;SDS011;10591;52.532;13.348;2024-03-06T13:52:46;23.45;;;13.93;;
20861;SDS011;10591;52.532;13.348;2024-03-06T13:55:16;24.47;;;15.28;;
20861;SDS011;10591;52.532;13.348;2024-03-06T13:57:47;24.75;;;15.40;;
20861;SDS011;10591;52.532;13.348;2024-03-06T14:00:18;19.70;;;13.93;;
20861;SDS011;10591;52.532;13.348;2024-03-06T14:02:51;22.02;;;14.05;;
20861;SDS011;10591;52.532;13.348;2024-03-06T14:05:22;20.62;;;14.15;;
20861;SDS011;10591;52.532;13.348;2024-03-06T14:07:55;18.48;;;12.07;;
20861;SDS011;10591;52.532;13.348;2024-03-06T14:10:26;21.30;;;12.45;;
20861;SDS011;10591;52.532;13.348;2024-03-06T14:12:56;19.90;;;13.13;;
20861;SDS011;10591;52.532;13.348;2024-03-06T14:15:27;14.68;;;10.70;;
20861;SDS011;10591;52.532;13.348;2024-03-06T14:17:58;18.50;;;11.93;;
20861;SDS011;10591;52.532;13.348;2024-03-06T14:20:30;18.02;;;13.22;;
20861;SDS011;10591;52.532;13.348;2024-03-06T14:23:02;17.27;;;11.85;;
20861;SDS011;10591;52.532;13.348;2024-03-06T14:25:34;21.65;;;15.32;;
20861;SDS011;10591;52.532;13.348;2024-03-06T14:28:07;18.30;;;12.60;;
20861;SDS011;10591;52.532;13.348;2024-03-06T14:30:40;21.57;;;14.47;;
20861;SDS011;10591;52.532;13.348;2024-03-06T14:33:13;20.55;;;14.50;;
20861;SDS011;10591;52.532;13.348;2024-03-06T14:35:44;26.30;;;14.85;;
20861;SDS011;10591;52.532;13.348;2024-03-06T14:38:18;25.10;;;15.72;;
20861;SDS011;10591;52.532;13.348;2024-03-06T14:40:51;28.55;;;17.02;;
20861;SDS011;10591;52.532;13.348;2024-03-06T14:43:22;33.20;;;18.10;;
20861;SDS011;10591;52.532;13.348;2024-03-06T14:45:55;32.15;;;19.15;;